SETU/TUA METAR and TAF weather

Enter ICAO airport designator
Station Type Date Time Source
SETU METAR 2024/05/28 21:00 UTC NOAA

SETU 282100Z 10010KT 9999 SCT020 SCT080 17/09 Q1032


Station Type Date Time Source
SETU Decoded METAR 2024/05/28 21:00 UTC NOAA

Tulcan / El Rosal, Ecuador (SETU) 00-49N 077-42W
May 28, 2024 - 05:00 PM EDT / 2024.05.28 2100 UTC
Wind: from the E (100 degrees) at 12 MPH (10 KT):0
Visibility: greater than 7 mile(s):0
Sky conditions: partly cloudy
Temperature: 62 F (17 C)
Dew Point: 48 F (9 C)
Relative Humidity: 59%
Pressure (altimeter): 30.47 in. Hg (1032 hPa)
ob: SETU 282100Z 10010KT 9999 SCT020 SCT080 17/09 Q1032
cycle: 21

Station Type Date Time Source
SETU TAF UTC NOAA

Error!

Example: see airport list